Time;durP1;ratioP1;P1;durP2;ratioP2;P2;SDS_P1;SDS_P2;PMS_P1;PMS_P2;Temp;Humidity;BMP_temperature;BMP_pressure;BME280_temperature;BME280_humidity;BME280_pressure;Samples;Min_cycle;Max_cycle;Signal;HPM_P1;HPM_P2
2023/05/08 00:01:18;;;;;;;3.50;3.20;;;;;;;21.17;39.81;95216.41;6038193;28;109309;-72
2023/05/08 00:04:21;;;;;;;3.10;2.90;;;;;;;21.18;40.19;95228.66;6037789;28;109133;-71
2023/05/08 00:07:25;;;;;;;3.37;3.07;;;;;;;21.18;39.65;95228.66;6025717;28;109222;-71
2023/05/08 00:10:30;;;;;;;3.47;3.20;;;;;;;21.15;39.92;95219.38;6037173;28;109318;-71
2023/05/08 00:13:33;;;;;;;3.30;3.00;;;;;;;21.15;39.65;95224.69;6037439;28;108734;-72
2023/05/08 00:16:36;;;;;;;6.13;2.70;;;;;;;21.14;39.31;95231.09;6037468;28;108867;-71
2023/05/08 00:19:39;;;;;;;3.17;2.70;;;;;;;21.13;39.32;95234.06;6028631;28;108780;-71
2023/05/08 00:22:42;;;;;;;3.33;3.10;;;;;;;21.10;39.19;95239.97;6040675;28;109697;-71
2023/05/08 00:25:46;;;;;;;5.63;3.20;;;;;;;21.07;39.50;95233.38;6041249;28;109113;-71
2023/05/08 00:28:50;;;;;;;3.10;2.90;;;;;;;21.05;39.17;95230.22;6036060;28;109085;-71
2023/05/08 00:31:53;;;;;;;3.27;2.70;;;;;;;21.05;39.05;95232.88;6038829;28;109017;-72
2023/05/08 00:34:56;;;;;;;3.00;2.70;;;;;;;21.04;39.01;95239.25;6044484;28;109088;-71
2023/05/08 00:37:59;;;;;;;2.77;2.57;;;;;;;21.05;38.84;95237.44;6039157;28;109167;-70
2023/05/08 00:41:03;;;;;;;3.17;2.87;;;;;;;21.04;38.65;95236.59;6029871;28;108924;-73
2023/05/08 00:44:07;;;;;;;2.97;2.77;;;;;;;21.06;38.68;95237.13;6040293;28;108786;-71
2023/05/08 00:47:10;;;;;;;5.23;2.80;;;;;;;21.04;38.95;95225.19;6040339;28;109077;-71
2023/05/08 00:50:13;;;;;;;2.97;2.60;;;;;;;21.05;38.96;95237.44;6040582;28;109206;-71
2023/05/08 00:53:19;;;;;;;2.60;2.40;;;;;;;21.05;38.79;95237.44;6030990;28;108907;-71
2023/05/08 00:56:24;;;;;;;3.60;2.90;;;;;;;21.05;39.10;95240.09;6039799;28;108915;-72
2023/05/08 00:59:28;;;;;;;3.33;2.53;;;;;;;21.04;38.83;95246.47;6040759;28;109181;-71
2023/05/08 01:02:31;;;;;;;3.27;3.00;;;;;;;21.04;38.97;95243.81;6036982;28;109911;-69
2023/05/08 01:05:36;;;;;;;3.00;2.80;;;;;;;21.02;39.11;95245.97;6034937;28;109237;-71
2023/05/08 01:08:39;;;;;;;3.37;3.03;;;;;;;21.02;39.01;95245.97;6039222;28;108829;-72
2023/05/08 01:11:56;;;;;;;3.00;2.80;;;;;;;20.94;38.99;95239.44;6038736;28;109634;-73
2023/05/08 01:15:06;;;;;;;3.90;3.50;;;;;;;20.99;38.79;95246.53;6025053;28;111297;-71
2023/05/08 01:18:17;;;;;;;3.80;3.00;;;;;;;20.99;38.93;95249.19;6035288;28;112327;-71
2023/05/08 01:21:31;;;;;;;3.20;2.93;;;;;;;20.97;38.82;95246.81;6040300;28;109434;-72
2023/05/08 01:24:57;;;;;;;3.50;3.17;;;;;;;20.92;38.99;95244.25;6035060;28;111362;-73
2023/05/08 01:28:14;;;;;;;4.13;3.57;;;;;;;;;;6029299;28;109080;-73
2023/05/08 01:31:25;;;;;;;3.73;3.43;;;;;;;20.92;38.85;95247.72;6039611;28;109251;-71
2023/05/08 01:34:33;;;;;;;3.33;3.00;;;;;;;20.92;39.21;95242.38;6040109;28;109611;-72
2023/05/08 01:37:56;;;;;;;3.60;3.40;;;;;;;20.90;38.81;95249.09;6029048;28;109018;-73
2023/05/08 01:41:07;;;;;;;3.90;3.60;;;;;;;20.86;39.23;95235.59;6036046;28;109056;-71
2023/05/08 01:44:13;;;;;;;5.73;3.90;;;;;;;20.87;39.09;95241.69;6040265;28;109670;-71
2023/05/08 01:47:20;;;;;;;5.03;3.37;;;;;;;20.84;38.98;95235.09;6039357;28;109092;-71
2023/05/08 01:50:33;;;;;;;3.90;3.50;;;;;;;20.84;38.62;95235.09;6041150;28;110854;-71
2023/05/08 01:53:41;;;;;;;3.80;3.37;;;;;;;20.85;39.18;95231.34;6036977;28;109777;-70
2023/05/08 01:56:47;;;;;;;3.70;3.40;;;;;;;20.85;39.26;95231.34;6039345;28;109358;-70
2023/05/08 01:59:54;;;;;;;4.97;3.27;;;;;;;20.84;38.87;95231.66;6034363;28;109591;-72
2023/05/08 02:02:58;;;;;;;5.27;3.93;;;;;;;20.83;39.43;95232.72;6035043;28;109269;-71
2023/05/08 02:06:05;;;;;;;3.70;3.40;;;;;;;20.83;38.65;95233.50;6041480;28;109255;-70
2023/05/08 02:09:10;;;;;;;5.93;3.50;;;;;;;20.83;38.89;95238.03;6039290;28;109100;-71
2023/05/08 02:12:16;;;;;;;4.13;3.47;;;;;;;20.81;39.04;95233.00;6028690;28;110382;-71
2023/05/08 02:15:21;;;;;;;3.40;3.10;;;;;;;20.79;38.77;95237.03;6038914;28;108703;-71
2023/05/08 02:18:26;;;;;;;6.20;3.53;;;;;;;20.82;38.84;95237.22;6039361;28;110987;-71
2023/05/08 02:21:31;;;;;;;4.57;4.17;;;;;;;20.81;38.76;95233.00;6039401;28;109218;-72
2023/05/08 02:24:36;;;;;;;4.73;4.23;;;;;;;20.79;38.93;95232.50;6029002;28;109476;-71
2023/05/08 02:27:42;;;;;;;4.97;3.20;;;;;;;20.70;38.89;95223.63;6039582;28;109208;-72
2023/05/08 02:30:45;;;;;;;5.00;3.70;;;;;;;20.78;38.68;95238.91;6038563;28;109505;-72
2023/05/08 02:33:50;;;;;;;4.20;3.90;;;;;;;20.77;38.88;95242.66;6040129;28;110942;-71
2023/05/08 02:36:55;;;;;;;4.97;3.83;;;;;;;20.76;38.92;95234.97;6033627;28;109673;-72
2023/05/08 02:39:59;;;;;;;3.93;3.53;;;;;;;20.76;39.06;95238.41;6031435;28;109412;-71
2023/05/08 02:43:02;;;;;;;4.43;3.53;;;;;;;20.73;38.61;95233.69;6037581;28;109514;-72
2023/05/08 02:46:12;;;;;;;4.10;3.73;;;;;;;20.75;38.93;95242.16;6028532;28;109063;-72
2023/05/08 02:49:31;;;;;;;4.10;3.80;;;;;;;20.73;38.91;95236.34;6038798;28;112028;-71
2023/05/08 02:52:43;;;;;;;4.93;4.63;;;;;;;20.74;38.75;95235.25;6038981;28;110076;-68
2023/05/08 02:55:49;;;;;;;5.10;4.53;;;;;;;20.75;39.14;95244.03;6038967;28;109172;-68
2023/05/08 02:58:59;;;;;;;4.53;4.13;;;;;;;20.72;38.92;95247.28;6029205;28;109193;-67
2023/05/08 03:02:09;;;;;;;6.63;4.47;;;;;;;20.74;39.07;95248.56;6037721;28;109370;-67
2023/05/08 03:05:17;;;;;;;4.83;4.50;;;;;;;20.78;39.19;95251.41;6040600;28;109224;-68
2023/05/08 03:08:28;;;;;;;4.07;3.77;;;;;;;20.75;39.03;95247.47;6030490;28;109208;-69
2023/05/08 03:11:40;;;;;;;4.83;4.53;;;;;;;20.75;39.20;95242.16;6038191;28;109011;-68
2023/05/08 03:14:57;;;;;;;4.53;4.23;;;;;;;20.74;39.03;95245.91;6036833;28;109708;-68
2023/05/08 03:18:06;;;;;;;4.77;4.33;;;;;;;20.75;39.05;95252.00;6038494;28;110358;-67
2023/05/08 03:21:12;;;;;;;4.70;4.10;;;;;;;20.73;39.08;95252.31;6028249;28;109748;-69
2023/05/08 03:24:19;;;;;;;4.10;3.70;;;;;;;20.54;39.19;95231.06;6038377;28;109091;-67
2023/05/08 03:27:23;;;;;;;4.07;3.77;;;;;;;20.71;38.83;95256.34;6037630;28;109348;-66
2023/05/08 03:30:27;;;;;;;4.63;3.80;;;;;;;20.70;39.08;95249.44;6032466;28;110090;-68
2023/05/08 03:33:32;;;;;;;4.50;4.10;;;;;;;20.70;39.02;95254.75;6033067;28;110011;-67
2023/05/08 03:36:35;;;;;;;4.80;3.90;;;;;;;20.70;39.11;95260.88;6037991;28;108868;-67
2023/05/08 03:39:40;;;;;;;4.73;3.77;;;;;;;20.70;38.92;95260.88;6037800;28;109084;-68
2023/05/08 03:42:44;;;;;;;4.47;4.07;;;;;;;20.58;39.07;95240.03;6023099;28;111520;-67
2023/05/08 03:45:48;;;;;;;4.13;3.83;;;;;;;20.69;38.95;95253.19;6036581;28;109210;-66
2023/05/08 03:48:53;;;;;;;4.23;3.80;;;;;;;20.67;38.46;95256.13;6052998;28;109452;-66
2023/05/08 03:51:57;;;;;;;4.50;4.10;;;;;;;20.69;38.72;95256.63;6038352;28;109059;-68
2023/05/08 03:55:02;;;;;;;4.57;4.07;;;;;;;20.70;39.02;95260.88;6025380;28;109843;-66
2023/05/08 03:58:14;;;;;;;4.30;3.90;;;;;;;20.71;39.04;95259.78;6037280;28;110091;-66
2023/05/08 04:01:23;;;;;;;4.20;3.87;;;;;;;20.69;38.98;95258.50;6043714;28;109142;-72
2023/05/08 04:04:33;;;;;;;6.40;4.43;;;;;;;20.70;39.06;95265.41;6035696;28;109285;-72
2023/05/08 04:07:42;;;;;;;3.77;3.40;;;;;;;20.67;39.31;95261.44;6028957;28;110547;-72
2023/05/08 04:10:50;;;;;;;4.70;4.30;;;;;;;20.70;39.03;95279.47;6037836;28;109268;-72
2023/05/08 04:14:00;;;;;;;6.13;4.50;;;;;;;20.74;39.08;95275.16;6037377;28;109428;-72
2023/05/08 04:17:09;;;;;;;4.60;4.20;;;;;;;20.71;38.94;95281.06;6031292;28;108935;-72
2023/05/08 04:20:17;;;;;;;4.27;3.87;;;;;;;20.74;39.17;95282.34;6037097;28;110115;-73
2023/05/08 04:23:23;;;;;;;7.73;4.67;;;;;;;20.66;39.53;95275.78;6037591;28;109873;-73
2023/05/08 04:26:29;;;;;;;4.40;3.80;;;;;;;20.66;39.41;95286.44;6037746;28;109238;-72
2023/05/08 04:29:33;;;;;;;21.90;5.10;;;;;;;20.59;39.77;95291.34;6029444;28;112174;-66
2023/05/08 04:32:38;;;;;;;8.10;4.60;;;;;;;20.50;39.75;95272.63;6037236;28;109160;-66
2023/05/08 04:35:45;;;;;;;8.97;4.13;;;;;;;20.57;39.58;95288.97;6037552;28;109571;-66
2023/05/08 04:38:48;;;;;;;8.97;4.50;;;;;;;20.58;39.58;95285.25;6032657;28;109243;-66
2023/05/08 04:41:54;;;;;;;6.00;5.40;;;;;;;20.57;39.72;95280.22;6032579;28;109288;-66
2023/05/08 04:44:57;;;;;;;9.90;4.70;;;;;;;20.56;40.01;95278.63;6037597;28;109138;-67
2023/05/08 04:48:00;;;;;;;11.30;5.60;;;;;;;20.69;40.21;95277.13;6036293;28;109253;-68
2023/05/08 04:51:04;;;;;;;13.20;6.10;;;;;;;20.80;42.22;95273.97;6026890;28;108975;-68
2023/05/08 04:54:07;;;;;;;15.57;6.20;;;;;;;20.84;42.62;95268.88;6037094;28;109382;-69
2023/05/08 04:57:12;;;;;;;20.37;5.93;;;;;;;20.88;42.40;95268.00;6036651;28;109085;-67
2023/05/08 05:00:16;;;;;;;16.20;6.00;;;;;;;20.86;42.63;95264.84;6036509;28;109489;-68
2023/05/08 05:03:19;;;;;;;14.10;5.30;;;;;;;20.72;40.85;95263.22;6003051;29;108991;-68
2023/05/08 05:06:22;;;;;;;9.73;5.80;;;;;;;20.72;41.59;95264.03;6030088;28;109047;-68
2023/05/08 05:09:25;;;;;;;18.03;6.60;;;;;;;20.80;42.53;95270.53;6041514;28;109253;-66
2023/05/08 05:12:29;;;;;;;17.27;6.83;;;;;;;20.81;42.27;95264.91;6041116;28;109215;-64
2023/05/08 05:15:32;;;;;;;10.70;6.53;;;;;;;20.58;40.92;95255.19;6016712;28;109947;-63
2023/05/08 05:18:35;;;;;;;12.97;7.63;;;;;;;20.42;41.67;95259.97;6040339;28;109152;-64
2023/05/08 05:21:38;;;;;;;33.33;29.93;;;;;;;20.12;41.90;95266.47;6041008;28;109505;-63
2023/05/08 05:24:41;;;;;;;9.67;7.13;;;;;;;19.77;42.60;95254.47;6032539;28;110638;-66
2023/05/08 05:27:46;;;;;;;10.60;6.33;;;;;;;19.62;42.90;95254.66;6041132;28;108878;-64
2023/05/08 05:30:49;;;;;;;7.10;6.03;;;;;;;19.75;42.81;95259.28;6033787;28;110046;-66
2023/05/08 05:33:52;;;;;;;6.60;5.90;;;;;;;19.67;42.64;95251.97;6038250;28;109149;-63
2023/05/08 05:36:55;;;;;;;6.60;5.80;;;;;;;19.93;42.32;95253.19;6031633;28;109274;-64
2023/05/08 05:39:59;;;;;;;24.30;10.30;;;;;;;20.21;42.16;95256.81;6038935;28;109331;-65
2023/05/08 05:43:03;;;;;;;25.63;11.47;;;;;;;20.46;41.65;95260.16;6039024;28;109138;-64
2023/05/08 05:46:07;;;;;;;24.00;10.73;;;;;;;20.66;41.95;95254.53;6038930;28;109727;-65
2023/05/08 05:49:11;;;;;;;22.20;9.37;;;;;;;20.81;41.84;95256.94;6020460;28;109614;-65
2023/05/08 05:52:14;;;;;;;23.10;9.70;;;;;;;20.91;41.96;95255.97;6044788;28;109089;-65
2023/05/08 05:55:17;;;;;;;19.33;9.97;;;;;;;20.96;41.80;95249.78;6052324;28;109056;-65
2023/05/08 05:58:22;;;;;;;19.10;9.93;;;;;;;21.05;41.55;95259.50;6056866;28;109316;-65
2023/05/08 06:01:27;;;;;;;18.97;9.83;;;;;;;21.12;41.48;95257.22;6033712;28;110500;-64
2023/05/08 06:04:31;;;;;;;14.97;8.63;;;;;;;21.18;41.90;95255.28;6040499;28;109058;-67
2023/05/08 06:07:34;;;;;;;16.40;8.70;;;;;;;21.16;41.88;95247.56;6040025;28;108655;-65
2023/05/08 06:10:37;;;;;;;16.10;10.00;;;;;;;21.23;41.74;95243.75;6034168;28;109061;-65
2023/05/08 06:13:42;;;;;;;12.10;10.30;;;;;;;21.28;41.47;95244.44;6040104;28;109486;-64
2023/05/08 06:16:45;;;;;;;16.50;9.73;;;;;;;21.33;41.77;95246.19;6039785;28;109349;-63
2023/05/08 06:19:49;;;;;;;21.27;9.40;;;;;;;21.34;42.20;95240.59;6037649;28;109732;-64
2023/05/08 06:22:52;;;;;;;20.77;8.40;;;;;;;21.38;41.57;95248.78;6030666;28;110861;-63
2023/05/08 06:25:55;;;;;;;13.80;8.93;;;;;;;21.38;42.23;95233.59;6032974;28;109178;-64
2023/05/08 06:29:00;;;;;;;14.43;9.13;;;;;;;21.45;42.29;95244.63;6020248;28;109256;-69
2023/05/08 06:32:03;;;;;;;14.20;9.83;;;;;;;21.50;42.19;95247.19;6039818;28;109318;-64
2023/05/08 06:35:07;;;;;;;22.80;8.70;;;;;;;21.41;42.24;95233.00;6034462;28;110193;-63
2023/05/08 06:38:10;;;;;;;26.57;8.37;;;;;;;21.36;42.02;95242.97;6039490;28;110030;-64
2023/05/08 06:41:13;;;;;;;23.53;7.80;;;;;;;21.39;42.14;95229.84;6039409;28;112042;-64
2023/05/08 06:44:18;;;;;;;32.17;8.27;;;;;;;21.47;41.84;95242.47;6029423;28;109619;-66
2023/05/08 06:47:21;;;;;;;9.53;7.40;;;;;;;21.20;41.63;95251.25;6038113;28;109402;-64
2023/05/08 06:50:25;;;;;;;49.23;9.40;;;;;;;21.17;41.99;95243.03;6038384;28;109044;-65
2023/05/08 06:53:28;;;;;;;41.63;8.50;;;;;;;21.31;41.88;95243.03;6039463;28;111114;-65
2023/05/08 06:56:31;;;;;;;32.53;7.80;;;;;;;21.38;41.93;95251.44;6029037;28;110268;-64
2023/05/08 06:59:35;;;;;;;25.20;7.57;;;;;;;21.41;41.76;95238.31;6040803;28;109315;-64
2023/05/08 07:02:38;;;;;;;66.77;11.93;;;;;;;21.35;41.62;95239.53;6039693;28;109548;-65
2023/05/08 07:05:41;;;;;;;65.30;13.60;;;;;;;21.27;41.96;95242.84;6047708;28;109141;-67
2023/05/08 07:08:44;;;;;;;12.40;6.50;;;;;;;21.25;41.12;95244.25;6028771;28;110339;-66
2023/05/08 07:11:48;;;;;;;12.80;6.67;;;;;;;21.19;40.75;95251.53;6040039;28;109053;-66
2023/05/08 07:14:52;;;;;;;14.90;8.43;;;;;;;21.24;41.56;95251.44;6039336;28;108960;-66
2023/05/08 07:17:57;;;;;;;18.40;7.10;;;;;;;21.29;41.65;95243.34;6035422;28;109814;-67
2023/05/08 07:21:01;;;;;;;15.70;7.77;;;;;;;21.39;41.39;95255.69;6034106;28;110619;-66
2023/05/08 07:24:05;;;;;;;17.67;9.20;;;;;;;21.40;41.58;95249.28;6039062;28;108885;-67
2023/05/08 07:27:08;;;;;;;19.50;8.33;;;;;;;21.42;41.47;95247.88;6039473;28;109125;-66
2023/05/08 07:30:13;;;;;;;17.47;8.43;;;;;;;21.44;41.49;95242.25;6028848;28;109636;-66
2023/05/08 07:33:16;;;;;;;17.70;8.63;;;;;;;21.46;41.61;95246.22;6039546;28;109260;-66
2023/05/08 07:36:19;;;;;;;13.83;7.70;;;;;;;21.46;41.52;95246.22;6037956;28;109050;-65
2023/05/08 07:39:23;;;;;;;21.37;7.80;;;;;;;21.50;41.77;95238.41;6038203;28;109410;-66
2023/05/08 07:42:26;;;;;;;16.43;7.87;;;;;;;21.51;41.30;95250.66;6028294;28;109150;-67
2023/05/08 07:45:30;;;;;;;15.40;7.40;;;;;;;21.55;41.47;95253.53;6038380;28;109006;-67
2023/05/08 07:48:33;;;;;;;14.40;7.87;;;;;;;21.53;41.25;95251.16;6038993;28;109054;-66
2023/05/08 07:51:36;;;;;;;13.77;7.37;;;;;;;21.56;41.17;95250.56;6037204;28;109121;-67
2023/05/08 07:54:39;;;;;;;14.50;7.60;;;;;;;21.58;41.44;95255.59;6030486;28;109609;-66
2023/05/08 07:57:43;;;;;;;16.27;7.63;;;;;;;21.56;41.09;95252.44;6038434;28;108974;-67
2023/05/08 08:00:48;;;;;;;19.60;8.53;;;;;;;21.55;41.57;95248.19;6038435;28;109429;-67
2023/05/08 08:03:53;;;;;;;10.97;7.33;;;;;;;21.59;41.12;95257.16;6028375;28;109081;-67
2023/05/08 08:06:56;;;;;;;13.93;7.40;;;;;;;21.57;41.46;95251.34;6037892;28;108826;-66
2023/05/08 08:09:59;;;;;;;13.30;8.10;;;;;;;21.58;41.36;95259.03;6037712;28;109191;-66
2023/05/08 08:13:02;;;;;;;12.87;8.03;;;;;;;21.63;41.46;95266.91;6038219;28;109985;-67
2023/05/08 08:16:07;;;;;;;11.13;7.07;;;;;;;21.69;41.32;95254.31;6027583;28;111674;-67
2023/05/08 08:19:10;;;;;;;8.73;7.00;;;;;;;21.72;41.27;95251.03;6038381;28;109230;-68
2023/05/08 08:22:13;;;;;;;11.27;7.40;;;;;;;21.75;41.15;95256.56;6037938;28;109063;-66
2023/05/08 08:25:17;;;;;;;11.87;7.60;;;;;;;21.73;41.39;95261.38;6037755;28;109621;-66
2023/05/08 08:28:20;;;;;;;10.53;7.70;;;;;;;21.74;40.75;95254.19;6028379;28;109209;-66
2023/05/08 08:31:25;;;;;;;8.77;7.87;;;;;;;21.74;41.31;95252.31;6038671;28;109051;-66
2023/05/08 08:34:28;;;;;;;9.27;7.90;;;;;;;21.77;41.08;95245.59;6038077;28;109142;-66
2023/05/08 08:37:31;;;;;;;8.90;8.00;;;;;;;21.76;40.88;95250.13;6032621;28;112033;-67
2023/05/08 08:40:39;;;;;;;9.00;8.00;;;;;;;21.76;41.17;95239.47;6032426;28;109522;-67
2023/05/08 08:43:42;;;;;;;8.93;8.00;;;;;;;21.74;41.19;95246.19;6041638;28;109682;-65
2023/05/08 08:46:52;;;;;;;8.70;7.80;;;;;;;21.75;40.95;95237.91;6041009;28;109426;-65
2023/05/08 08:49:58;;;;;;;7.87;7.13;;;;;;;21.79;41.16;95230.09;6030426;28;110392;-64
2023/05/08 08:53:07;;;;;;;11.30;7.63;;;;;;;21.83;40.92;95232.97;6040661;28;109159;-63
2023/05/08 08:56:11;;;;;;;18.10;9.10;;;;;;;21.84;41.40;95222.03;6040603;28;110922;-66
2023/05/08 08:59:17;;;;;;;17.07;9.00;;;;;;;21.86;41.79;95222.53;6040199;28;109129;-70
2023/05/08 09:02:23;;;;;;;24.57;8.50;;;;;;;21.83;41.80;95219.66;6029889;28;109179;-68
2023/05/08 09:05:26;;;;;;;36.23;9.83;;;;;;;21.85;42.42;95217.50;6041070;28;109130;-69
2023/05/08 09:08:29;;;;;;;19.73;10.50;;;;;;;21.84;41.96;95214.03;6040697;28;109242;-70
2023/05/08 09:11:33;;;;;;;20.97;9.60;;;;;;;21.85;42.14;95207.63;6029129;28;109248;-69
2023/05/08 09:14:36;;;;;;;22.20;10.30;;;;;;;21.84;42.84;95208.69;6031245;28;110263;-69
2023/05/08 09:17:40;;;;;;;20.40;9.70;;;;;;;21.88;42.54;95204.38;6039953;28;111894;-68
2023/05/08 09:20:44;;;;;;;25.97;11.00;;;;;;;21.88;42.99;95195.59;6039851;28;112397;-68
2023/05/08 09:23:58;;;;;;;20.90;9.57;;;;;;;21.86;43.12;95187.13;6028224;28;109017;-68
2023/05/08 09:27:01;;;;;;;18.23;8.87;;;;;;;21.83;43.36;95193.03;6040061;28;109053;-69
2023/05/08 09:30:07;;;;;;;18.83;8.73;;;;;;;21.78;42.95;95185.91;6039993;28;110869;-69
2023/05/08 09:33:11;;;;;;;17.73;8.63;;;;;;;21.73;43.21;95184.16;6040754;28;109068;-68
2023/05/08 09:36:27;;;;;;;17.93;8.73;;;;;;;21.69;42.68;95177.06;6030290;28;109199;-69
2023/05/08 09:39:30;;;;;;;18.57;8.40;;;;;;;21.65;43.08;95166.19;6040567;28;109102;-69
2023/05/08 09:42:38;;;;;;;22.57;8.67;;;;;;;21.63;43.16;95167.59;6035592;28;110775;-70
2023/05/08 09:45:41;;;;;;;10.30;7.00;;;;;;;21.65;42.83;95168.06;6045999;28;111472;-68
2023/05/08 09:48:46;;;;;;;14.60;7.30;;;;;;;21.63;42.71;95171.03;6036188;28;109157;-69
2023/05/08 09:51:53;;;;;;;16.17;8.17;;;;;;;21.65;42.77;95181.38;6039259;28;110146;-69
2023/05/08 09:54:59;;;;;;;10.40;6.90;;;;;;;21.64;42.61;95191.25;6039594;28;109125;-66
2023/05/08 09:58:03;;;;;;;9.90;7.97;;;;;;;21.58;42.34;95181.81;6032775;28;109096;-65
2023/05/08 10:01:06;;;;;;;11.63;7.60;;;;;;;21.62;43.00;95187.31;6039858;28;109460;-65
2023/05/08 10:04:10;;;;;;;9.60;7.47;;;;;;;21.63;43.07;95188.91;6041048;28;108955;-66
2023/05/08 10:07:14;;;;;;;9.20;8.10;;;;;;;21.63;42.52;95181.69;6040208;28;109052;-66
2023/05/08 10:10:24;;;;;;;12.40;9.47;;;;;;;21.59;42.98;95174.59;6029961;28;109276;-65
2023/05/08 10:13:28;;;;;;;9.53;8.03;;;;;;;21.64;42.71;95180.59;6037374;28;108812;-69
2023/05/08 10:16:36;;;;;;;13.13;8.50;;;;;;;21.64;42.83;95177.94;6040230;28;109060;-67
2023/05/08 10:19:46;;;;;;;11.83;7.70;;;;;;;21.66;42.98;95175.75;6035179;28;109250;-67
2023/05/08 10:22:49;;;;;;;12.33;8.80;;;;;;;21.66;42.58;95174.97;6034357;28;111338;-67
2023/05/08 10:25:56;;;;;;;10.87;8.20;;;;;;;21.58;43.10;95159.72;6039428;28;109234;-67
2023/05/08 10:29:07;;;;;;;10.00;8.43;;;;;;;21.67;42.95;95161.34;6030277;28;109467;-67
2023/05/08 10:32:13;;;;;;;9.00;8.07;;;;;;;21.83;44.27;95153.06;6021381;28;109313;-66
2023/05/08 10:35:18;;;;;;;21.00;9.53;;;;;;;21.91;44.52;95149.69;6033674;28;109013;-65
2023/05/08 10:38:23;;;;;;;24.87;10.50;;;;;;;21.95;44.06;95145.34;6038805;28;109050;-64
2023/05/08 10:41:26;;;;;;;17.13;10.10;;;;;;;21.96;44.94;95142.38;6044415;28;109799;-65
2023/05/08 10:44:30;;;;;;;24.30;11.40;;;;;;;21.89;44.65;95141.22;6028767;28;109118;-64
2023/05/08 10:47:45;;;;;;;26.03;10.30;;;;;;;21.91;45.50;95147.03;6038875;28;109985;-65
2023/05/08 10:51:01;;;;;;;23.60;10.00;;;;;;;21.91;45.82;95144.38;6039692;28;109810;-65
2023/05/08 10:54:11;;;;;;;24.17;10.00;;;;;;;21.98;46.69;95145.50;6021414;28;110054;-64
2023/05/08 10:57:15;;;;;;;25.33;10.63;;;;;;;22.02;46.44;95135.84;6039593;28;109160;-64
2023/05/08 11:00:19;;;;;;;22.57;9.43;;;;;;;22.05;46.40;95137.13;6037861;28;111217;-63
2023/05/08 11:03:24;;;;;;;21.27;9.80;;;;;;;22.06;46.16;95130.69;6038353;28;109102;-64
2023/05/08 11:06:47;;;;;;;33.30;9.77;;;;;;;22.09;46.52;95130.06;6028539;28;109661;-64
2023/05/08 11:09:51;;;;;;;19.30;9.80;;;;;;;22.09;46.10;95124.75;6037830;28;109252;-64
2023/05/08 11:12:55;;;;;;;18.63;9.63;;;;;;;22.13;46.49;95115.06;6044016;28;110084;-64
2023/05/08 11:15:58;;;;;;;14.33;7.97;;;;;;;22.11;46.63;95120.69;6038687;28;109056;-63
2023/05/08 11:19:17;;;;;;;17.07;9.17;;;;;;;22.13;46.03;95120.38;6028285;28;108807;-64
2023/05/08 11:22:27;;;;;;;23.33;8.23;;;;;;;22.17;46.44;95115.22;6038421;28;110072;-64
2023/05/08 11:25:42;;;;;;;19.93;9.90;;;;;;;22.17;46.25;95105.34;6038895;28;109316;-67
2023/05/08 11:28:57;;;;;;;13.17;8.63;;;;;;;22.17;46.25;95093.91;6029395;28;109099;-65
2023/05/08 11:32:00;;;;;;;16.63;8.80;;;;;;;22.18;46.12;95092.81;6040278;28;109066;-65
2023/05/08 11:35:05;;;;;;;15.80;9.03;;;;;;;22.15;46.50;95086.22;6038791;28;109222;-64
2023/05/08 11:38:15;;;;;;;14.53;8.30;;;;;;;22.13;46.44;95077.75;6037986;28;111642;-65
2023/05/08 11:41:21;;;;;;;11.40;7.67;;;;;;;22.15;46.45;95082.75;6028743;28;109314;-65
2023/05/08 11:44:26;;;;;;;13.30;8.03;;;;;;;22.18;46.51;95079.47;6037983;28;110071;-66
2023/05/08 11:47:37;;;;;;;13.00;8.10;;;;;;;22.16;46.40;95063.78;6038579;28;109016;-65
2023/05/08 11:50:41;;;;;;;13.47;8.53;;;;;;;22.19;46.03;95071.22;6032764;28;109262;-64
2023/05/08 11:53:46;;;;;;;10.90;8.03;;;;;;;22.17;46.17;95062.69;6033431;28;109134;-65
2023/05/08 11:56:50;;;;;;;13.83;8.67;;;;;;;22.17;46.50;95056.59;6020595;28;109259;-67
2023/05/08 11:59:53;;;;;;;11.43;8.77;;;;;;;22.20;46.11;95053.34;6034509;28;109282;-71
2023/05/08 12:02:57;;;;;;;12.97;8.27;;;;;;;22.20;46.43;95048.78;6029434;28;111226;-67
2023/05/08 12:06:00;;;;;;;12.53;7.67;;;;;;;22.19;46.23;95033.09;6038654;28;109142;-66
2023/05/08 12:09:11;;;;;;;9.27;7.53;;;;;;;22.20;46.68;95034.69;6038404;28;109275;-66
2023/05/08 12:12:14;;;;;;;9.67;8.33;;;;;;;22.16;46.49;95033.69;6036587;28;109080;-61
2023/05/08 12:15:17;;;;;;;10.27;7.47;;;;;;;22.20;46.85;95032.78;6028707;28;109193;-61
2023/05/08 12:18:22;;;;;;;9.60;8.60;;;;;;;22.21;46.91;95028.25;6041887;28;109023;-62
2023/05/08 12:21:26;;;;;;;10.20;7.90;;;;;;;22.23;46.87;95034.84;6041616;28;109037;-63
2023/05/08 12:24:31;;;;;;;8.87;7.97;;;;;;;22.25;46.91;95023.88;6046571;28;110673;-61
2023/05/08 12:27:34;;;;;;;12.10;8.03;;;;;;;22.20;46.70;95008.03;6127877;28;109618;-61
2023/05/08 12:30:37;;;;;;;9.43;7.10;;;;;;;22.24;46.52;95020.41;6040116;28;110019;-61
2023/05/08 12:33:41;;;;;;;13.97;8.63;;;;;;;22.23;46.67;95004.75;6046153;28;109425;-62
2023/05/08 12:36:44;;;;;;;12.80;8.27;;;;;;;22.21;47.11;95013.03;6031504;28;109142;-62
2023/05/08 12:39:49;;;;;;;11.40;7.87;;;;;;;22.27;46.45;95011.03;6040766;28;111318;-62
2023/05/08 12:42:52;;;;;;;12.97;8.40;;;;;;;22.28;47.00;94999.25;6041177;28;109136;-60
2023/05/08 12:45:55;;;;;;;20.67;9.70;;;;;;;22.27;47.06;95008.34;6037865;28;109048;-62
2023/05/08 12:49:03;;;;;;;12.17;8.33;;;;;;;22.29;47.25;95008.84;6030728;28;109289;-62
2023/05/08 12:52:08;;;;;;;15.20;8.93;;;;;;;22.34;47.22;95008.69;6033257;28;110214;-63
2023/05/08 12:55:23;;;;;;;20.87;8.50;;;;;;;22.25;46.87;95002.53;6043561;28;109079;-66
2023/05/08 12:58:28;;;;;;;20.00;11.70;;;;;;;22.21;47.30;95002.38;6045898;28;109246;-67
2023/05/08 13:01:31;;;;;;;22.47;15.73;;;;;;;22.19;47.21;94993.91;6053923;28;110095;-64
2023/05/08 13:04:37;;;;;;;30.83;18.40;;;;;;;22.26;47.77;94996.13;6036607;28;109471;-64
2023/05/08 13:07:41;;;;;;;30.43;21.90;;;;;;;22.24;47.42;94995.66;6042434;28;109174;-64
2023/05/08 13:10:47;;;;;;;35.47;24.53;;;;;;;22.24;47.85;94999.09;6030821;28;109242;-65
2023/05/08 13:13:50;;;;;;;30.00;26.47;;;;;;;22.22;47.90;94995.16;6038101;28;109193;-64
2023/05/08 13:16:53;;;;;;;32.83;29.33;;;;;;;22.23;47.55;95004.75;6039768;28;109028;-64
2023/05/08 13:19:56;;;;;;;31.50;28.17;;;;;;;22.22;47.48;95008.50;6040583;28;109040;-64
2023/05/08 13:23:00;;;;;;;31.07;28.10;;;;;;;22.25;47.80;95010.53;6031786;28;109748;-63
2023/05/08 13:26:04;;;;;;;30.53;27.30;;;;;;;22.24;48.12;95020.41;6038704;28;109132;-64
2023/05/08 13:29:08;;;;;;;33.47;25.97;;;;;;;22.24;47.92;95024.97;6038133;28;109084;-64
2023/05/08 13:32:11;;;;;;;36.60;27.30;;;;;;;22.23;48.14;95037.50;6039712;28;108742;-68
2023/05/08 13:35:14;;;;;;;46.93;27.00;;;;;;;22.30;48.43;95039.72;6029931;28;108928;-69
2023/05/08 13:38:17;;;;;;;33.97;24.43;;;;;;;22.31;47.76;95046.63;6040039;28;109275;-70
2023/05/08 13:41:22;;;;;;;33.90;23.93;;;;;;;22.26;48.48;95039.56;6038953;28;109162;-69
2023/05/08 13:44:26;;;;;;;28.80;22.13;;;;;;;22.35;48.57;95047.59;6027204;28;109138;-70
2023/05/08 13:47:29;;;;;;;25.53;22.50;;;;;;;22.37;48.20;95050.75;6043517;28;109327;-70
2023/05/08 13:50:32;;;;;;;30.70;20.73;;;;;;;22.32;48.54;95048.19;6043936;28;109041;-71
2023/05/08 13:53:35;;;;;;;26.57;19.73;;;;;;;22.36;48.67;95062.50;6040016;28;109284;-71
2023/05/08 13:56:39;;;;;;;21.93;19.67;;;;;;;22.36;48.82;95068.63;6030266;28;109272;-69
2023/05/08 13:59:43;;;;;;;20.33;18.23;;;;;;;22.39;48.15;95077.91;6039755;28;111915;-69
2023/05/08 14:02:46;;;;;;;20.23;18.23;;;;;;;22.40;48.23;95080.25;6039669;28;109364;-69
2023/05/08 14:05:51;;;;;;;19.60;17.63;;;;;;;22.39;48.55;95086.69;6039726;28;108882;-69
2023/05/08 14:08:55;;;;;;;18.60;16.90;;;;;;;22.42;49.06;95093.28;6029011;28;109411;-68
2023/05/08 14:12:00;;;;;;;36.60;17.23;;;;;;;22.39;48.56;95102.69;6040470;28;109081;-68
2023/05/08 14:15:04;;;;;;;17.20;15.40;;;;;;;22.39;48.51;95101.88;6039770;28;110884;-70